メインページ
METAR-TAF:

METAR-TAF

空港 :

パリ=シャルル・ド・ゴール空港

パリチャールズ・ドゴール, フランス

緯度: 49-01N, 経度: 002-32E, 海抜: 118m

現時点の気象観測

当レポートは19分前の16:00(UTC)に作成
東/北東の風 10kt
気温 22°C
湿度 35%
気圧 1025 hPa
視程10km以上
1,500メートル以下は雲なし、積乱雲なし

METAR: LFPG 071600Z AUTO 07010KT CAVOK 22/06 Q1025 NOSIG

時間: 18:19 (16:19 UTC)

予報

当レポートは56分前の15:23(UTC)に作成
予報は07日の 15時(UTC)から 08日の 18時(UTC)まで有効
の風 10kt
視程10km以上
1,500メートル以下は雲なし、積乱雲なし

TAF: LFPG 071523Z 0715/0818 10010KT CAVOK TX23/0812Z TN11/0806Z

4,000以上の空港の気象観測と天気予報(METAR報とTAF報)

利用可能な観測所は地図上に黄色い丸と赤い丸で示す。

丸の上にカーソルを重ねると観測所名を参照できる。

次にクリックすると気象観測と天気予報を参照できる。

マップの切り替え:黒色「×」印の緑ボタンをクリックして拡大、「-」印の緑ボタンをクリックして縮小、緑色の三角印をクリックして隣りの地図に切り替え


METAR-TAF: